Ana Sayfa
METAR-TAF:

METAR-TAF

Havaalanları :

Amman, Ürdün

Enlem: 31-59N, Boylam: 035-59E, yükseklik: 767 m

Güncel hava durumu gözlemi

Rapor saat 17:00 UTC de 16 dakika önce yapıldı.
Rüzgar kuzeybatıdan 11 kt
Sıcaklık 25°C
Nem 57%
Basınç 1009 hPa
Görüş mesafesi: 6000 m

METAR: OJAM 191700Z 32011KT 6000 NSC 25/16 Q1009 NOSIG

Saat: 20:16 (17:16 UTC)

Tahmin

Rapor saat 11:00 UTC de 6 saat ve 16 dakika önce yapıldı.
Ayın 19'si saat 12 UTC'den ayın 20'si saat 18 UTC'ye kadar geçerli Tahmin
Rüzgar batıdan 8 kt
Görüş mesafesi: 5000 m
3000 ft yükseklikte az bulutlu
Toz Pusu
Olasılık 30%
ayın 19'si saat 12 UTC'den ayın 19'si saat 15 UTC'ye kadar
Rüzgar batı/kuzeybatıdan 14 kt
Görüş mesafesi: 4000 m

TAF: OJAM 191100Z 1912/2018 28008KT 5000 HZ FEW030 PROB30 1912/1915 29014KT 4000

4.000'den fazla havaalanı için hava durumu gözlemleri ve tahminleri (METAR ve TAF raporları).

Kullanılabilir istasyonlar harita üzerinde sarı ve kırmızı noktalarla gösterilir.

İstasyonun adını görmek için fareyi noktanın üzerinde gezdirin.

Sonrasında hava gözlem ve tahminlerini görmek için tıklayın.

Haritayı değiştirmek için: yaklaştırmak için siyah artı işaretli yeşil düğmeye ve uzaklaştırmak için de eksi işaretli düğmeye hızla tıklayın; bitişik haritalar için yeşil okları kullanın.


METAR-TAF: